sensor_id;sensor_type;location;lat;lon;timestamp;temperature;humidity
5846;DHT22;2949;50.778;7.094;2022-09-09T00:04:39;15.70;99.90
5846;DHT22;2949;50.778;7.094;2022-09-09T00:12:11;15.50;99.90
5846;DHT22;2949;50.778;7.094;2022-09-09T00:14:41;15.40;99.90
5846;DHT22;2949;50.778;7.094;2022-09-09T00:17:44;15.40;99.90
5846;DHT22;2949;50.778;7.094;2022-09-09T00:20:16;15.30;99.90
5846;DHT22;2949;50.778;7.094;2022-09-09T00:23:00;15.30;99.90
5846;DHT22;2949;50.778;7.094;2022-09-09T00:25:34;15.20;99.90
5846;DHT22;2949;50.778;7.094;2022-09-09T00:28:04;15.20;99.90
5846;DHT22;2949;50.778;7.094;2022-09-09T00:30:38;15.10;99.90
5846;DHT22;2949;50.778;7.094;2022-09-09T00:33:12;15.10;99.90
5846;DHT22;2949;50.778;7.094;2022-09-09T00:35:47;15.10;99.90
5846;DHT22;2949;50.778;7.094;2022-09-09T00:38:25;15.10;99.90
5846;DHT22;2949;50.778;7.094;2022-09-09T00:41:00;15.00;99.90
5846;DHT22;2949;50.778;7.094;2022-09-09T00:43:31;15.00;99.90
5846;DHT22;2949;50.778;7.094;2022-09-09T00:49:04;14.90;99.90
5846;DHT22;2949;50.778;7.094;2022-09-09T00:52:39;14.90;99.90
5846;DHT22;2949;50.778;7.094;2022-09-09T00:55:03;14.80;99.90
5846;DHT22;2949;50.778;7.094;2022-09-09T00:57:34;14.80;99.90
5846;DHT22;2949;50.778;7.094;2022-09-09T01:00:30;14.80;99.90
5846;DHT22;2949;50.778;7.094;2022-09-09T01:03:10;14.80;99.90
5846;DHT22;2949;50.778;7.094;2022-09-09T01:05:44;14.90;99.90
5846;DHT22;2949;50.778;7.094;2022-09-09T01:08:36;14.90;99.90
5846;DHT22;2949;50.778;7.094;2022-09-09T01:11:10;15.00;99.90
5846;DHT22;2949;50.778;7.094;2022-09-09T01:13:42;15.10;99.90
5846;DHT22;2949;50.778;7.094;2022-09-09T01:16:09;15.10;99.90
5846;DHT22;2949;50.778;7.094;2022-09-09T01:18:40;15.20;99.90
5846;DHT22;2949;50.778;7.094;2022-09-09T01:21:41;15.20;99.90
5846;DHT22;2949;50.778;7.094;2022-09-09T01:26:59;15.20;99.90
5846;DHT22;2949;50.778;7.094;2022-09-09T01:29:26;15.30;99.90
5846;DHT22;2949;50.778;7.094;2022-09-09T01:31:55;15.30;99.90
5846;DHT22;2949;50.778;7.094;2022-09-09T01:34:22;15.30;99.90
5846;DHT22;2949;50.778;7.094;2022-09-09T01:36:59;15.30;99.90
5846;DHT22;2949;50.778;7.094;2022-09-09T01:39:27;15.30;99.90
5846;DHT22;2949;50.778;7.094;2022-09-09T01:41:55;15.30;99.90
5846;DHT22;2949;50.778;7.094;2022-09-09T01:44:22;15.30;99.90
5846;DHT22;2949;50.778;7.094;2022-09-09T01:46:48;15.40;99.90
5846;DHT22;2949;50.778;7.094;2022-09-09T01:49:14;15.40;99.90
5846;DHT22;2949;50.778;7.094;2022-09-09T01:51:41;15.50;99.90
5846;DHT22;2949;50.778;7.094;2022-09-09T01:54:08;15.50;99.90
5846;DHT22;2949;50.778;7.094;2022-09-09T01:56:47;15.60;99.90
5846;DHT22;2949;50.778;7.094;2022-09-09T02:07:48;15.70;99.90
5846;DHT22;2949;50.778;7.094;2022-09-09T02:10:37;15.70;99.90
5846;DHT22;2949;50.778;7.094;2022-09-09T02:13:10;15.70;99.90
5846;DHT22;2949;50.778;7.094;2022-09-09T02:15:56;15.70;99.90
5846;DHT22;2949;50.778;7.094;2022-09-09T02:18:30;15.70;99.90
5846;DHT22;2949;50.778;7.094;2022-09-09T02:20:58;15.70;99.90
5846;DHT22;2949;50.778;7.094;2022-09-09T02:23:24;15.70;99.90
5846;DHT22;2949;50.778;7.094;2022-09-09T02:25:52;15.70;99.90
5846;DHT22;2949;50.778;7.094;2022-09-09T02:28:20;15.80;99.90
5846;DHT22;2949;50.778;7.094;2022-09-09T02:30:48;15.90;99.90
5846;DHT22;2949;50.778;7.094;2022-09-09T02:33:23;16.00;99.90
5846;DHT22;2949;50.778;7.094;2022-09-09T02:35:51;16.00;99.90
5846;DHT22;2949;50.778;7.094;2022-09-09T02:38:17;16.00;99.90
5846;DHT22;2949;50.778;7.094;2022-09-09T02:40:45;16.00;99.90
5846;DHT22;2949;50.778;7.094;2022-09-09T02:43:11;16.00;99.90
5846;DHT22;2949;50.778;7.094;2022-09-09T02:45:50;16.00;99.90
5846;DHT22;2949;50.778;7.094;2022-09-09T02:48:31;16.10;99.90
5846;DHT22;2949;50.778;7.094;2022-09-09T02:51:11;16.10;99.90
5846;DHT22;2949;50.778;7.094;2022-09-09T02:53:51;16.10;99.90
5846;DHT22;2949;50.778;7.094;2022-09-09T02:56:23;16.20;99.90
5846;DHT22;2949;50.778;7.094;2022-09-09T02:58:50;16.20;99.90
5846;DHT22;2949;50.778;7.094;2022-09-09T03:01:17;16.10;99.90
5846;DHT22;2949;50.778;7.094;2022-09-09T03:03:43;16.10;99.90
5846;DHT22;2949;50.778;7.094;2022-09-09T03:06:10;16.10;99.90
5846;DHT22;2949;50.778;7.094;2022-09-09T03:08:37;16.00;99.90
5846;DHT22;2949;50.778;7.094;2022-09-09T03:11:02;16.10;99.90
5846;DHT22;2949;50.778;7.094;2022-09-09T03:13:28;16.00;99.90
5846;DHT22;2949;50.778;7.094;2022-09-09T03:15:54;16.10;99.90
5846;DHT22;2949;50.778;7.094;2022-09-09T03:18:20;16.10;99.90
5846;DHT22;2949;50.778;7.094;2022-09-09T03:20:46;16.10;99.90
5846;DHT22;2949;50.778;7.094;2022-09-09T03:23:14;16.10;99.90
5846;DHT22;2949;50.778;7.094;2022-09-09T03:25:39;16.20;99.90
5846;DHT22;2949;50.778;7.094;2022-09-09T03:28:11;16.20;99.90
5846;DHT22;2949;50.778;7.094;2022-09-09T03:30:36;16.20;99.90
5846;DHT22;2949;50.778;7.094;2022-09-09T03:33:03;16.20;99.90
5846;DHT22;2949;50.778;7.094;2022-09-09T03:35:29;16.20;99.90
5846;DHT22;2949;50.778;7.094;2022-09-09T03:37:54;16.20;99.90
5846;DHT22;2949;50.778;7.094;2022-09-09T03:40:21;16.30;99.90
5846;DHT22;2949;50.778;7.094;2022-09-09T03:42:46;16.30;99.90
5846;DHT22;2949;50.778;7.094;2022-09-09T03:45:13;16.30;99.90
5846;DHT22;2949;50.778;7.094;2022-09-09T03:47:38;16.30;99.90
5846;DHT22;2949;50.778;7.094;2022-09-09T03:50:05;16.30;99.90
5846;DHT22;2949;50.778;7.094;2022-09-09T03:52:38;16.30;99.90
5846;DHT22;2949;50.778;7.094;2022-09-09T03:55:04;16.30;99.90
5846;DHT22;2949;50.778;7.094;2022-09-09T03:57:30;16.30;99.90
5846;DHT22;2949;50.778;7.094;2022-09-09T03:59:57;16.30;99.90
5846;DHT22;2949;50.778;7.094;2022-09-09T04:02:23;16.40;99.90
5846;DHT22;2949;50.778;7.094;2022-09-09T04:04:48;16.40;99.90
5846;DHT22;2949;50.778;7.094;2022-09-09T04:07:14;16.30;99.90
5846;DHT22;2949;50.778;7.094;2022-09-09T04:09:39;16.30;99.90
5846;DHT22;2949;50.778;7.094;2022-09-09T04:12:05;16.30;99.90
5846;DHT22;2949;50.778;7.094;2022-09-09T04:14:32;16.40;99.90
5846;DHT22;2949;50.778;7.094;2022-09-09T04:16:57;16.40;99.90
5846;DHT22;2949;50.778;7.094;2022-09-09T04:19:25;16.40;99.90
5846;DHT22;2949;50.778;7.094;2022-09-09T04:21:51;16.40;99.90
5846;DHT22;2949;50.778;7.094;2022-09-09T04:24:17;16.30;99.90
5846;DHT22;2949;50.778;7.094;2022-09-09T04:26:42;16.40;99.90
5846;DHT22;2949;50.778;7.094;2022-09-09T04:29:08;16.40;99.90
5846;DHT22;2949;50.778;7.094;2022-09-09T04:31:34;16.40;99.90
5846;DHT22;2949;50.778;7.094;2022-09-09T04:33:59;16.50;99.90
5846;DHT22;2949;50.778;7.094;2022-09-09T04:36:30;16.40;99.90
5846;DHT22;2949;50.778;7.094;2022-09-09T04:38:57;16.40;99.90
5846;DHT22;2949;50.778;7.094;2022-09-09T04:41:22;16.40;99.90
5846;DHT22;2949;50.778;7.094;2022-09-09T04:43:49;16.40;99.90
5846;DHT22;2949;50.778;7.094;2022-09-09T04:46:15;16.40;99.90
5846;DHT22;2949;50.778;7.094;2022-09-09T04:48:42;16.40;99.90
5846;DHT22;2949;50.778;7.094;2022-09-09T04:51:11;16.40;99.90
5846;DHT22;2949;50.778;7.094;2022-09-09T04:53:36;16.40;99.90
5846;DHT22;2949;50.778;7.094;2022-09-09T04:56:05;16.40;99.90
5846;DHT22;2949;50.778;7.094;2022-09-09T04:58:31;16.40;99.90
5846;DHT22;2949;50.778;7.094;2022-09-09T05:01:08;16.40;99.90
5846;DHT22;2949;50.778;7.094;2022-09-09T05:03:34;16.50;99.90
5846;DHT22;2949;50.778;7.094;2022-09-09T05:06:19;16.50;99.90
5846;DHT22;2949;50.778;7.094;2022-09-09T05:08:45;16.40;99.90
5846;DHT22;2949;50.778;7.094;2022-09-09T05:11:15;16.40;99.90
5846;DHT22;2949;50.778;7.094;2022-09-09T05:13:42;16.40;99.90
5846;DHT22;2949;50.778;7.094;2022-09-09T05:16:07;16.40;99.90
5846;DHT22;2949;50.778;7.094;2022-09-09T05:18:36;16.40;99.90
5846;DHT22;2949;50.778;7.094;2022-09-09T05:21:02;16.40;99.90
5846;DHT22;2949;50.778;7.094;2022-09-09T05:23:27;16.50;99.90
5846;DHT22;2949;50.778;7.094;2022-09-09T05:25:59;16.50;99.90
5846;DHT22;2949;50.778;7.094;2022-09-09T05:28:26;16.60;99.90
5846;DHT22;2949;50.778;7.094;2022-09-09T05:30:59;16.50;99.90
5846;DHT22;2949;50.778;7.094;2022-09-09T05:33:26;16.50;99.90
5846;DHT22;2949;50.778;7.094;2022-09-09T05:36:10;16.50;99.90
5846;DHT22;2949;50.778;7.094;2022-09-09T05:38:36;16.60;99.90
5846;DHT22;2949;50.778;7.094;2022-09-09T05:41:03;16.60;99.90
5846;DHT22;2949;50.778;7.094;2022-09-09T05:43:29;16.70;99.90
5846;DHT22;2949;50.778;7.094;2022-09-09T05:46:11;16.70;99.90
5846;DHT22;2949;50.778;7.094;2022-09-09T05:48:38;16.80;99.90
5846;DHT22;2949;50.778;7.094;2022-09-09T05:51:05;16.70;99.90
5846;DHT22;2949;50.778;7.094;2022-09-09T05:53:32;16.80;99.90
5846;DHT22;2949;50.778;7.094;2022-09-09T05:56:04;16.80;99.90
5846;DHT22;2949;50.778;7.094;2022-09-09T05:58:34;16.90;99.90
5846;DHT22;2949;50.778;7.094;2022-09-09T06:01:08;16.90;99.90
5846;DHT22;2949;50.778;7.094;2022-09-09T06:03:36;16.90;99.90
5846;DHT22;2949;50.778;7.094;2022-09-09T06:06:04;16.90;99.90
5846;DHT22;2949;50.778;7.094;2022-09-09T06:08:32;17.00;99.90
5846;DHT22;2949;50.778;7.094;2022-09-09T06:11:02;17.00;99.90
5846;DHT22;2949;50.778;7.094;2022-09-09T06:13:28;17.10;99.90
5846;DHT22;2949;50.778;7.094;2022-09-09T06:15:54;17.20;99.90
5846;DHT22;2949;50.778;7.094;2022-09-09T06:18:20;17.30;99.90
5846;DHT22;2949;50.778;7.094;2022-09-09T06:20:58;17.40;99.90
5846;DHT22;2949;50.778;7.094;2022-09-09T06:23:25;17.60;99.90
5846;DHT22;2949;50.778;7.094;2022-09-09T06:25:50;17.80;99.90
5846;DHT22;2949;50.778;7.094;2022-09-09T06:28:17;18.10;99.90
5846;DHT22;2949;50.778;7.094;2022-09-09T06:30:43;18.40;99.90
5846;DHT22;2949;50.778;7.094;2022-09-09T06:33:08;18.60;99.90
5846;DHT22;2949;50.778;7.094;2022-09-09T06:35:34;18.80;99.90
5846;DHT22;2949;50.778;7.094;2022-09-09T06:38:00;18.90;99.90
5846;DHT22;2949;50.778;7.094;2022-09-09T06:40:26;19.00;99.90
5846;DHT22;2949;50.778;7.094;2022-09-09T06:42:51;19.10;99.90
5846;DHT22;2949;50.778;7.094;2022-09-09T06:45:17;19.30;99.90
5846;DHT22;2949;50.778;7.094;2022-09-09T06:47:43;19.40;99.90
5846;DHT22;2949;50.778;7.094;2022-09-09T06:50:09;19.40;99.90
5846;DHT22;2949;50.778;7.094;2022-09-09T06:52:35;19.60;99.90
5846;DHT22;2949;50.778;7.094;2022-09-09T06:55:01;19.50;99.90
5846;DHT22;2949;50.778;7.094;2022-09-09T06:57:26;19.50;99.90
5846;DHT22;2949;50.778;7.094;2022-09-09T06:59:52;19.40;99.90
5846;DHT22;2949;50.778;7.094;2022-09-09T07:02:17;19.30;99.90
5846;DHT22;2949;50.778;7.094;2022-09-09T07:04:43;21.10;99.90
5846;DHT22;2949;50.778;7.094;2022-09-09T07:07:09;23.80;99.90
5846;DHT22;2949;50.778;7.094;2022-09-09T07:09:37;25.80;99.90
5846;DHT22;2949;50.778;7.094;2022-09-09T07:12:03;27.10;99.90
5846;DHT22;2949;50.778;7.094;2022-09-09T07:14:32;28.70;99.90
5846;DHT22;2949;50.778;7.094;2022-09-09T07:16:59;30.60;92.40
5846;DHT22;2949;50.778;7.094;2022-09-09T07:19:25;31.70;84.20
5846;DHT22;2949;50.778;7.094;2022-09-09T07:21:51;31.70;77.70
5846;DHT22;2949;50.778;7.094;2022-09-09T07:24:16;32.00;76.20
5846;DHT22;2949;50.778;7.094;2022-09-09T07:26:42;31.40;73.40
5846;DHT22;2949;50.778;7.094;2022-09-09T07:29:08;30.40;76.10
5846;DHT22;2949;50.778;7.094;2022-09-09T07:31:36;31.40;77.60
5846;DHT22;2949;50.778;7.094;2022-09-09T07:34:02;32.70;72.50
5846;DHT22;2949;50.778;7.094;2022-09-09T07:36:33;32.00;68.00
5846;DHT22;2949;50.778;7.094;2022-09-09T07:39:05;30.20;70.30
5846;DHT22;2949;50.778;7.094;2022-09-09T07:41:47;28.70;74.00
5846;DHT22;2949;50.778;7.094;2022-09-09T07:44:18;27.10;78.60
5846;DHT22;2949;50.778;7.094;2022-09-09T07:46:45;26.10;83.80
5846;DHT22;2949;50.778;7.094;2022-09-09T07:49:11;24.90;90.30
5846;DHT22;2949;50.778;7.094;2022-09-09T07:51:39;24.20;92.80
5846;DHT22;2949;50.778;7.094;2022-09-09T07:54:08;23.50;94.90
5846;DHT22;2949;50.778;7.094;2022-09-09T07:56:34;22.80;97.20
5846;DHT22;2949;50.778;7.094;2022-09-09T07:59:01;22.10;99.90
5846;DHT22;2949;50.778;7.094;2022-09-09T08:01:53;21.40;99.90
5846;DHT22;2949;50.778;7.094;2022-09-09T08:04:20;20.80;99.90
5846;DHT22;2949;50.778;7.094;2022-09-09T08:06:56;20.50;99.90
5846;DHT22;2949;50.778;7.094;2022-09-09T08:09:22;20.30;99.90
5846;DHT22;2949;50.778;7.094;2022-09-09T08:11:52;20.10;99.90
5846;DHT22;2949;50.778;7.094;2022-09-09T08:14:17;20.20;99.90
5846;DHT22;2949;50.778;7.094;2022-09-09T08:16:46;20.20;99.90
5846;DHT22;2949;50.778;7.094;2022-09-09T08:19:12;20.40;99.90
5846;DHT22;2949;50.778;7.094;2022-09-09T08:21:40;20.80;99.90
5846;DHT22;2949;50.778;7.094;2022-09-09T08:24:07;21.00;99.90
5846;DHT22;2949;50.778;7.094;2022-09-09T08:26:36;22.00;99.90
5846;DHT22;2949;50.778;7.094;2022-09-09T08:29:04;23.20;99.90
5846;DHT22;2949;50.778;7.094;2022-09-09T08:31:35;25.20;99.90
5846;DHT22;2949;50.778;7.094;2022-09-09T08:34:02;28.40;92.60
5846;DHT22;2949;50.778;7.094;2022-09-09T08:36:33;29.00;80.80
5846;DHT22;2949;50.778;7.094;2022-09-09T08:39:00;28.10;83.60
5846;DHT22;2949;50.778;7.094;2022-09-09T08:52:17;23.10;94.30
5846;DHT22;2949;50.778;7.094;2022-09-09T08:54:45;23.00;95.00
5846;DHT22;2949;50.778;7.094;2022-09-09T08:57:15;22.90;95.00
5846;DHT22;2949;50.778;7.094;2022-09-09T08:59:43;22.60;95.50
5846;DHT22;2949;50.778;7.094;2022-09-09T09:02:32;22.20;97.20
5846;DHT22;2949;50.778;7.094;2022-09-09T09:05:19;22.10;97.90
5846;DHT22;2949;50.778;7.094;2022-09-09T09:07:58;22.10;99.90
5846;DHT22;2949;50.778;7.094;2022-09-09T09:12:55;22.20;99.90
5846;DHT22;2949;50.778;7.094;2022-09-09T09:15:25;22.60;99.90
5846;DHT22;2949;50.778;7.094;2022-09-09T09:17:50;23.20;98.20
5846;DHT22;2949;50.778;7.094;2022-09-09T09:20:20;23.70;95.50
5846;DHT22;2949;50.778;7.094;2022-09-09T09:22:52;23.70;94.00
5846;DHT22;2949;50.778;7.094;2022-09-09T09:25:22;23.70;95.00
5846;DHT22;2949;50.778;7.094;2022-09-09T09:28:03;23.70;94.10
5846;DHT22;2949;50.778;7.094;2022-09-09T09:30:39;23.50;95.30
5846;DHT22;2949;50.778;7.094;2022-09-09T09:33:21;23.40;94.60
5846;DHT22;2949;50.778;7.094;2022-09-09T09:35:50;23.20;94.40
5846;DHT22;2949;50.778;7.094;2022-09-09T09:38:24;22.80;94.70
5846;DHT22;2949;50.778;7.094;2022-09-09T09:40:55;22.40;95.30
5846;DHT22;2949;50.778;7.094;2022-09-09T09:43:37;22.20;96.00
5846;DHT22;2949;50.778;7.094;2022-09-09T09:46:05;22.10;96.90
5846;DHT22;2949;50.778;7.094;2022-09-09T09:48:31;22.30;97.10
5846;DHT22;2949;50.778;7.094;2022-09-09T09:51:00;22.50;97.10
5846;DHT22;2949;50.778;7.094;2022-09-09T09:53:29;22.60;95.30
5846;DHT22;2949;50.778;7.094;2022-09-09T09:56:01;22.60;94.90
5846;DHT22;2949;50.778;7.094;2022-09-09T09:58:31;22.90;95.50
5846;DHT22;2949;50.778;7.094;2022-09-09T10:01:00;23.90;93.00
5846;DHT22;2949;50.778;7.094;2022-09-09T10:03:35;25.30;91.30
5846;DHT22;2949;50.778;7.094;2022-09-09T10:06:05;26.60;83.10
5846;DHT22;2949;50.778;7.094;2022-09-09T10:08:44;26.40;81.30
5846;DHT22;2949;50.778;7.094;2022-09-09T10:11:40;26.00;79.70
5846;DHT22;2949;50.778;7.094;2022-09-09T10:14:30;26.70;80.00
5846;DHT22;2949;50.778;7.094;2022-09-09T10:17:29;28.30;76.40
5846;DHT22;2949;50.778;7.094;2022-09-09T10:22:35;27.10;73.00
5846;DHT22;2949;50.778;7.094;2022-09-09T10:25:43;25.90;76.70
5846;DHT22;2949;50.778;7.094;2022-09-09T10:28:23;25.30;80.30
5846;DHT22;2949;50.778;7.094;2022-09-09T10:31:18;24.60;85.40
5846;DHT22;2949;50.778;7.094;2022-09-09T10:34:02;24.00;86.80
5846;DHT22;2949;50.778;7.094;2022-09-09T10:36:32;23.40;90.10
5846;DHT22;2949;50.778;7.094;2022-09-09T10:39:10;22.90;91.20
5846;DHT22;2949;50.778;7.094;2022-09-09T10:42:05;22.50;93.30
5846;DHT22;2949;50.778;7.094;2022-09-09T10:44:54;22.20;94.40
5846;DHT22;2949;50.778;7.094;2022-09-09T10:47:36;22.20;94.50
5846;DHT22;2949;50.778;7.094;2022-09-09T10:50:13;22.30;95.20
5846;DHT22;2949;50.778;7.094;2022-09-09T10:53:20;22.60;95.40
5846;DHT22;2949;50.778;7.094;2022-09-09T10:55:53;23.00;93.80
5846;DHT22;2949;50.778;7.094;2022-09-09T10:58:30;23.30;93.90
5846;DHT22;2949;50.778;7.094;2022-09-09T11:01:02;23.50;92.40
5846;DHT22;2949;50.778;7.094;2022-09-09T11:03:33;23.50;92.60
5846;DHT22;2949;50.778;7.094;2022-09-09T11:06:10;23.90;92.00
5846;DHT22;2949;50.778;7.094;2022-09-09T11:08:39;24.20;90.90
5846;DHT22;2949;50.778;7.094;2022-09-09T11:11:12;24.10;90.30
5846;DHT22;2949;50.778;7.094;2022-09-09T11:14:07;24.10;90.80
5846;DHT22;2949;50.778;7.094;2022-09-09T11:16:40;24.40;90.60
5846;DHT22;2949;50.778;7.094;2022-09-09T11:19:16;24.50;90.00
5846;DHT22;2949;50.778;7.094;2022-09-09T11:21:46;24.60;85.60
5846;DHT22;2949;50.778;7.094;2022-09-09T11:24:23;24.60;85.60
5846;DHT22;2949;50.778;7.094;2022-09-09T11:27:09;24.70;86.50
5846;DHT22;2949;50.778;7.094;2022-09-09T11:35:45;24.50;85.10
5846;DHT22;2949;50.778;7.094;2022-09-09T11:38:25;24.20;86.00
5846;DHT22;2949;50.778;7.094;2022-09-09T11:41:05;24.00;87.60
5846;DHT22;2949;50.778;7.094;2022-09-09T11:43:52;23.70;90.20
5846;DHT22;2949;50.778;7.094;2022-09-09T11:46:33;23.50;90.20
5846;DHT22;2949;50.778;7.094;2022-09-09T11:49:05;23.50;90.80
5846;DHT22;2949;50.778;7.094;2022-09-09T11:51:33;23.80;89.70
5846;DHT22;2949;50.778;7.094;2022-09-09T11:54:25;24.00;89.20
5846;DHT22;2949;50.778;7.094;2022-09-09T11:56:46;24.40;86.90
5846;DHT22;2949;50.778;7.094;2022-09-09T11:59:24;24.30;89.30
5846;DHT22;2949;50.778;7.094;2022-09-09T12:04:42;24.00;88.10
5846;DHT22;2949;50.778;7.094;2022-09-09T12:14:54;24.20;86.00
5846;DHT22;2949;50.778;7.094;2022-09-09T12:17:22;24.30;84.20
5846;DHT22;2949;50.778;7.094;2022-09-09T12:19:48;24.20;86.50
5846;DHT22;2949;50.778;7.094;2022-09-09T12:25:47;23.90;86.30
5846;DHT22;2949;50.778;7.094;2022-09-09T12:31:22;23.60;89.30
5846;DHT22;2949;50.778;7.094;2022-09-09T12:33:49;23.40;87.30
5846;DHT22;2949;50.778;7.094;2022-09-09T12:36:27;23.20;85.80
5846;DHT22;2949;50.778;7.094;2022-09-09T12:38:54;23.00;87.20
5846;DHT22;2949;50.778;7.094;2022-09-09T12:41:28;22.80;88.40
5846;DHT22;2949;50.778;7.094;2022-09-09T12:44:04;22.60;89.90
5846;DHT22;2949;50.778;7.094;2022-09-09T12:46:42;22.60;90.10
5846;DHT22;2949;50.778;7.094;2022-09-09T12:49:30;22.70;90.40
5846;DHT22;2949;50.778;7.094;2022-09-09T12:52:01;22.90;91.40
5846;DHT22;2949;50.778;7.094;2022-09-09T12:54:28;23.10;89.50
5846;DHT22;2949;50.778;7.094;2022-09-09T12:56:53;23.40;89.10
5846;DHT22;2949;50.778;7.094;2022-09-09T12:59:24;23.40;90.00
5846;DHT22;2949;50.778;7.094;2022-09-09T13:01:59;23.30;88.70
5846;DHT22;2949;50.778;7.094;2022-09-09T13:04:25;23.10;88.90
5846;DHT22;2949;50.778;7.094;2022-09-09T13:06:50;22.80;90.90
5846;DHT22;2949;50.778;7.094;2022-09-09T13:09:18;22.50;91.20
5846;DHT22;2949;50.778;7.094;2022-09-09T13:11:48;22.20;91.30
5846;DHT22;2949;50.778;7.094;2022-09-09T13:14:24;21.90;92.90
5846;DHT22;2949;50.778;7.094;2022-09-09T13:17:02;21.90;93.50
5846;DHT22;2949;50.778;7.094;2022-09-09T13:19:38;21.80;93.60
5846;DHT22;2949;50.778;7.094;2022-09-09T13:22:28;21.90;93.50
5846;DHT22;2949;50.778;7.094;2022-09-09T13:27:40;22.20;93.20
5846;DHT22;2949;50.778;7.094;2022-09-09T13:33:05;22.20;94.50
5846;DHT22;2949;50.778;7.094;2022-09-09T13:35:32;22.10;95.50
5846;DHT22;2949;50.778;7.094;2022-09-09T13:37:59;22.10;95.90
5846;DHT22;2949;50.778;7.094;2022-09-09T13:40:31;22.40;95.50
5846;DHT22;2949;50.778;7.094;2022-09-09T13:42:57;22.70;94.40
5846;DHT22;2949;50.778;7.094;2022-09-09T13:45:26;23.10;94.50
5846;DHT22;2949;50.778;7.094;2022-09-09T13:47:55;23.60;93.30
5846;DHT22;2949;50.778;7.094;2022-09-09T13:50:29;23.70;92.50
5846;DHT22;2949;50.778;7.094;2022-09-09T13:52:56;23.70;91.80
5846;DHT22;2949;50.778;7.094;2022-09-09T13:55:27;23.70;91.60
5846;DHT22;2949;50.778;7.094;2022-09-09T13:58:03;23.50;91.80
5846;DHT22;2949;50.778;7.094;2022-09-09T14:00:32;23.10;93.20
5846;DHT22;2949;50.778;7.094;2022-09-09T14:02:57;22.90;94.50
5846;DHT22;2949;50.778;7.094;2022-09-09T14:05:25;22.70;95.20
5846;DHT22;2949;50.778;7.094;2022-09-09T14:07:51;22.60;96.60
5846;DHT22;2949;50.778;7.094;2022-09-09T14:10:16;22.60;96.60
5846;DHT22;2949;50.778;7.094;2022-09-09T14:12:42;22.60;97.20
5846;DHT22;2949;50.778;7.094;2022-09-09T14:15:11;22.70;96.80
5846;DHT22;2949;50.778;7.094;2022-09-09T14:17:36;22.70;97.00
5846;DHT22;2949;50.778;7.094;2022-09-09T14:20:06;22.60;97.20
5846;DHT22;2949;50.778;7.094;2022-09-09T14:22:34;22.40;98.30
5846;DHT22;2949;50.778;7.094;2022-09-09T14:25:00;22.40;99.40
5846;DHT22;2949;50.778;7.094;2022-09-09T14:27:26;22.40;99.40
5846;DHT22;2949;50.778;7.094;2022-09-09T14:29:52;22.60;99.90
5846;DHT22;2949;50.778;7.094;2022-09-09T14:32:20;22.90;98.00
5846;DHT22;2949;50.778;7.094;2022-09-09T14:34:46;23.10;97.20
5846;DHT22;2949;50.778;7.094;2022-09-09T14:37:15;23.30;95.40
5846;DHT22;2949;50.778;7.094;2022-09-09T14:39:40;23.30;94.90
5846;DHT22;2949;50.778;7.094;2022-09-09T14:42:09;23.20;94.20
5846;DHT22;2949;50.778;7.094;2022-09-09T14:44:39;22.90;94.50
5846;DHT22;2949;50.778;7.094;2022-09-09T14:47:06;22.70;96.00
5846;DHT22;2949;50.778;7.094;2022-09-09T14:49:33;22.80;96.30
5846;DHT22;2949;50.778;7.094;2022-09-09T14:51:59;22.90;96.20
5846;DHT22;2949;50.778;7.094;2022-09-09T14:54:25;23.00;96.40
5846;DHT22;2949;50.778;7.094;2022-09-09T14:56:50;23.00;96.60
5846;DHT22;2949;50.778;7.094;2022-09-09T14:59:16;23.10;97.10
5846;DHT22;2949;50.778;7.094;2022-09-09T15:01:42;22.90;96.50
5846;DHT22;2949;50.778;7.094;2022-09-09T15:04:07;22.70;96.60
5846;DHT22;2949;50.778;7.094;2022-09-09T15:06:35;22.50;96.50
5846;DHT22;2949;50.778;7.094;2022-09-09T15:09:02;22.30;96.70
5846;DHT22;2949;50.778;7.094;2022-09-09T15:11:30;22.10;98.30
5846;DHT22;2949;50.778;7.094;2022-09-09T15:13:58;21.80;99.10
5846;DHT22;2949;50.778;7.094;2022-09-09T15:16:26;21.80;99.60
5846;DHT22;2949;50.778;7.094;2022-09-09T15:18:55;21.70;99.90
5846;DHT22;2949;50.778;7.094;2022-09-09T15:21:22;21.60;99.90
5846;DHT22;2949;50.778;7.094;2022-09-09T15:23:49;21.60;99.90
5846;DHT22;2949;50.778;7.094;2022-09-09T15:26:15;21.50;99.90
5846;DHT22;2949;50.778;7.094;2022-09-09T15:28:42;21.50;99.90
5846;DHT22;2949;50.778;7.094;2022-09-09T15:31:13;21.30;99.90
5846;DHT22;2949;50.778;7.094;2022-09-09T15:34:02;21.20;99.90
5846;DHT22;2949;50.778;7.094;2022-09-09T15:36:39;20.90;99.90
5846;DHT22;2949;50.778;7.094;2022-09-09T15:39:08;20.70;99.90
5846;DHT22;2949;50.778;7.094;2022-09-09T15:41:37;20.20;99.90
5846;DHT22;2949;50.778;7.094;2022-09-09T15:44:03;19.60;99.90
5846;DHT22;2949;50.778;7.094;2022-09-09T15:49:17;18.90;99.90
5846;DHT22;2949;50.778;7.094;2022-09-09T15:51:54;18.60;99.90
5846;DHT22;2949;50.778;7.094;2022-09-09T15:54:21;18.40;99.90
5846;DHT22;2949;50.778;7.094;2022-09-09T15:56:51;18.30;99.90
5846;DHT22;2949;50.778;7.094;2022-09-09T15:59:17;18.20;99.90
5846;DHT22;2949;50.778;7.094;2022-09-09T16:01:43;18.20;99.90
5846;DHT22;2949;50.778;7.094;2022-09-09T16:04:09;18.20;99.90
5846;DHT22;2949;50.778;7.094;2022-09-09T16:06:35;18.20;99.90
5846;DHT22;2949;50.778;7.094;2022-09-09T16:09:03;18.10;99.90
5846;DHT22;2949;50.778;7.094;2022-09-09T16:11:32;18.10;99.90
5846;DHT22;2949;50.778;7.094;2022-09-09T16:13:59;18.00;99.90
5846;DHT22;2949;50.778;7.094;2022-09-09T16:16:27;18.10;99.90
5846;DHT22;2949;50.778;7.094;2022-09-09T16:18:59;18.20;99.90
5846;DHT22;2949;50.778;7.094;2022-09-09T16:21:27;18.30;99.90
5846;DHT22;2949;50.778;7.094;2022-09-09T16:23:57;18.30;99.90
5846;DHT22;2949;50.778;7.094;2022-09-09T16:26:25;18.30;99.90
5846;DHT22;2949;50.778;7.094;2022-09-09T16:28:50;18.20;99.90
5846;DHT22;2949;50.778;7.094;2022-09-09T16:31:19;18.20;99.90
5846;DHT22;2949;50.778;7.094;2022-09-09T16:33:46;18.20;99.90
5846;DHT22;2949;50.778;7.094;2022-09-09T16:36:13;18.20;99.90
5846;DHT22;2949;50.778;7.094;2022-09-09T16:38:40;18.20;99.90
5846;DHT22;2949;50.778;7.094;2022-09-09T16:41:09;18.10;99.90
5846;DHT22;2949;50.778;7.094;2022-09-09T16:43:36;18.10;99.90
5846;DHT22;2949;50.778;7.094;2022-09-09T16:46:15;18.00;99.90
5846;DHT22;2949;50.778;7.094;2022-09-09T16:48:42;18.00;99.90
5846;DHT22;2949;50.778;7.094;2022-09-09T16:51:15;17.90;99.90
5846;DHT22;2949;50.778;7.094;2022-09-09T16:53:41;17.90;99.90
5846;DHT22;2949;50.778;7.094;2022-09-09T16:56:18;17.90;99.90
5846;DHT22;2949;50.778;7.094;2022-09-09T16:58:53;17.90;99.90
5846;DHT22;2949;50.778;7.094;2022-09-09T17:01:26;17.90;99.90
5846;DHT22;2949;50.778;7.094;2022-09-09T17:03:56;17.90;99.90
5846;DHT22;2949;50.778;7.094;2022-09-09T17:06:23;17.90;99.90
5846;DHT22;2949;50.778;7.094;2022-09-09T17:08:54;17.80;99.90
5846;DHT22;2949;50.778;7.094;2022-09-09T17:11:20;17.70;99.90
5846;DHT22;2949;50.778;7.094;2022-09-09T17:13:47;17.70;99.90
5846;DHT22;2949;50.778;7.094;2022-09-09T17:16:14;17.70;99.90
5846;DHT22;2949;50.778;7.094;2022-09-09T17:18:40;17.60;99.90
5846;DHT22;2949;50.778;7.094;2022-09-09T17:21:09;17.60;99.90
5846;DHT22;2949;50.778;7.094;2022-09-09T17:23:36;17.50;99.90
5846;DHT22;2949;50.778;7.094;2022-09-09T17:26:04;17.50;99.90
5846;DHT22;2949;50.778;7.094;2022-09-09T17:28:31;17.40;99.90
5846;DHT22;2949;50.778;7.094;2022-09-09T17:30:57;17.30;99.90
5846;DHT22;2949;50.778;7.094;2022-09-09T17:33:27;17.30;99.90
5846;DHT22;2949;50.778;7.094;2022-09-09T17:35:54;17.20;99.90